sensor_id;sensor_type;location;lat;lon;timestamp;pressure;altitude;pressure_sealevel;temperature;humidity
58690;BME280;44470;53.206;-6.106;2024-03-07T14:27:35;101781.50;;;21.21;41.80
58690;BME280;44470;53.206;-6.106;2024-03-07T14:32:49;101774.38;;;21.14;42.09
58690;BME280;44470;53.206;-6.106;2024-03-07T14:35:23;101777.94;;;21.16;42.14
58690;BME280;44470;53.206;-6.106;2024-03-07T14:40:30;101760.16;;;21.09;41.97
58690;BME280;44470;53.206;-6.106;2024-03-07T14:42:56;101760.16;;;21.09;42.64
58690;BME280;44470;53.206;-6.106;2024-03-07T14:45:27;101754.81;;;21.09;42.61
58690;BME280;44470;53.206;-6.106;2024-03-07T14:47:55;101751.16;;;21.16;42.63
58690;BME280;44470;53.206;-6.106;2024-03-07T14:50:21;101755.59;;;21.20;42.60
58690;BME280;44470;53.206;-6.106;2024-03-07T14:52:48;101736.03;;;21.13;42.34
58690;BME280;44470;53.206;-6.106;2024-03-07T14:55:13;101738.66;;;21.21;42.28
58690;BME280;44470;53.206;-6.106;2024-03-07T14:57:39;101737.78;;;21.17;42.30
58690;BME280;44470;53.206;-6.106;2024-03-07T15:00:09;101737.81;;;21.13;42.33
58690;BME280;44470;53.206;-6.106;2024-03-07T15:02:44;101738.69;;;21.16;42.23
58690;BME280;44470;53.206;-6.106;2024-03-07T15:05:09;101742.25;;;21.14;42.72
58690;BME280;44470;53.206;-6.106;2024-03-07T15:07:35;101728.00;;;21.12;42.71
58690;BME280;44470;53.206;-6.106;2024-03-07T15:10:00;101736.03;;;21.12;42.62
58690;BME280;44470;53.206;-6.106;2024-03-07T15:12:31;101722.69;;;21.09;42.25
58690;BME280;44470;53.206;-6.106;2024-03-07T15:14:56;101723.53;;;21.15;42.28
58690;BME280;44470;53.206;-6.106;2024-03-07T15:17:21;101719.97;;;21.12;42.27
58690;BME280;44470;53.206;-6.106;2024-03-07T15:19:48;101720.84;;;21.14;42.27
58690;BME280;44470;53.206;-6.106;2024-03-07T15:22:14;101712.84;;;21.12;42.47
58690;BME280;44470;53.206;-6.106;2024-03-07T15:24:41;101708.38;;;21.14;42.14
58690;BME280;44470;53.206;-6.106;2024-03-07T15:27:07;101706.56;;;21.15;42.11
58690;BME280;44470;53.206;-6.106;2024-03-07T15:29:35;101696.75;;;21.14;42.29
58690;BME280;44470;53.206;-6.106;2024-03-07T15:32:01;101698.56;;;21.13;41.97
58690;BME280;44470;53.206;-6.106;2024-03-07T15:34:28;101688.72;;;21.15;42.11
58690;BME280;44470;53.206;-6.106;2024-03-07T15:37:00;101678.00;;;21.17;41.88
58690;BME280;44470;53.206;-6.106;2024-03-07T15:39:27;101685.13;;;21.18;42.16
58690;BME280;44470;53.206;-6.106;2024-03-07T15:41:55;101678.94;;;21.13;42.46
58690;BME280;44470;53.206;-6.106;2024-03-07T15:44:20;101673.53;;;21.16;42.14
58690;BME280;44470;53.206;-6.106;2024-03-07T15:46:46;101668.19;;;21.16;41.85
58690;BME280;44470;53.206;-6.106;2024-03-07T15:49:11;101669.09;;;21.15;41.91
58690;BME280;44470;53.206;-6.106;2024-03-07T15:51:38;101671.78;;;21.12;42.07
58690;BME280;44470;53.206;-6.106;2024-03-07T15:54:04;101663.75;;;21.12;42.03
58690;BME280;44470;53.206;-6.106;2024-03-07T15:56:30;101662.00;;;21.11;42.34
58690;BME280;44470;53.206;-6.106;2024-03-07T15:58:55;101655.78;;;21.10;41.72
58690;BME280;44470;53.206;-6.106;2024-03-07T16:01:20;101649.50;;;21.11;42.33
58690;BME280;44470;53.206;-6.106;2024-03-07T16:03:47;101639.72;;;21.10;42.30
58690;BME280;44470;53.206;-6.106;2024-03-07T16:06:12;101635.19;;;21.14;42.01
58690;BME280;44470;53.206;-6.106;2024-03-07T16:08:40;101639.63;;;21.15;42.11
58690;BME280;44470;53.206;-6.106;2024-03-07T16:11:05;101634.31;;;21.12;42.31
58690;BME280;44470;53.206;-6.106;2024-03-07T16:13:33;101633.44;;;21.10;42.16
58690;BME280;44470;53.206;-6.106;2024-03-07T16:16:00;101626.25;;;21.15;41.70
58690;BME280;44470;53.206;-6.106;2024-03-07T16:18:25;101632.56;;;21.12;42.17
58690;BME280;44470;53.206;-6.106;2024-03-07T16:20:51;101626.28;;;21.12;41.82
58690;BME280;44470;53.206;-6.106;2024-03-07T16:23:16;101633.41;;;21.13;42.23
58690;BME280;44470;53.206;-6.106;2024-03-07T16:25:42;101624.53;;;21.11;41.89
58690;BME280;44470;53.206;-6.106;2024-03-07T16:28:07;101619.19;;;21.08;41.77
58690;BME280;44470;53.206;-6.106;2024-03-07T16:30:36;101619.19;;;21.09;42.18
58690;BME280;44470;53.206;-6.106;2024-03-07T16:33:02;101612.97;;;21.07;42.18
58690;BME280;44470;53.206;-6.106;2024-03-07T16:35:29;101604.88;;;21.12;41.86
58690;BME280;44470;53.206;-6.106;2024-03-07T16:37:56;101600.44;;;21.12;42.15
58690;BME280;44470;53.206;-6.106;2024-03-07T16:40:22;101601.28;;;21.14;41.69
58690;BME280;44470;53.206;-6.106;2024-03-07T16:42:49;101596.91;;;21.07;42.05
58690;BME280;44470;53.206;-6.106;2024-03-07T16:45:21;101604.00;;;21.10;42.24
58690;BME280;44470;53.206;-6.106;2024-03-07T16:47:47;101599.50;;;21.15;41.68
58690;BME280;44470;53.206;-6.106;2024-03-07T16:50:16;101595.94;;;21.13;41.97
58690;BME280;44470;53.206;-6.106;2024-03-07T16:52:42;101595.97;;;21.10;42.20
58690;BME280;44470;53.206;-6.106;2024-03-07T16:55:08;101591.56;;;21.07;42.11
58690;BME280;44470;53.206;-6.106;2024-03-07T16:57:42;101594.28;;;21.04;41.90
58690;BME280;44470;53.206;-6.106;2024-03-07T17:00:09;101585.34;;;21.03;41.96
58690;BME280;44470;53.206;-6.106;2024-03-07T17:02:55;101591.56;;;21.05;42.18
58690;BME280;44470;53.206;-6.106;2024-03-07T17:05:27;101596.00;;;21.07;41.87
58690;BME280;44470;53.206;-6.106;2024-03-07T17:07:52;101589.78;;;21.04;42.20
58690;BME280;44470;53.206;-6.106;2024-03-07T17:10:21;101597.00;;;21.01;42.30
58690;BME280;44470;53.206;-6.106;2024-03-07T17:12:48;101593.34;;;21.07;42.29
58690;BME280;44470;53.206;-6.106;2024-03-07T17:15:14;101593.34;;;21.08;42.07
58690;BME280;44470;53.206;-6.106;2024-03-07T17:17:41;101595.97;;;21.10;42.24
58690;BME280;44470;53.206;-6.106;2024-03-07T17:20:07;101594.25;;;21.05;42.31
58690;BME280;44470;53.206;-6.106;2024-03-07T17:22:34;101588.03;;;21.05;42.03
58690;BME280;44470;53.206;-6.106;2024-03-07T17:24:59;101582.63;;;21.08;42.05
58690;BME280;44470;53.206;-6.106;2024-03-07T17:27:25;101581.75;;;21.04;42.02
58690;BME280;44470;53.206;-6.106;2024-03-07T17:29:50;101574.69;;;21.02;42.13
58690;BME280;44470;53.206;-6.106;2024-03-07T17:32:16;101579.13;;;21.01;42.28
58690;BME280;44470;53.206;-6.106;2024-03-07T17:34:41;101572.00;;;21.00;42.04
58690;BME280;44470;53.206;-6.106;2024-03-07T17:37:07;101579.16;;;21.00;41.84
58690;BME280;44470;53.206;-6.106;2024-03-07T17:39:32;101579.13;;;21.03;42.04
58690;BME280;44470;53.206;-6.106;2024-03-07T17:41:58;101572.88;;;21.04;41.84
58690;BME280;44470;53.206;-6.106;2024-03-07T17:44:23;101576.47;;;21.00;42.03
58690;BME280;44470;53.206;-6.106;2024-03-07T17:46:49;101582.72;;;21.00;41.77
58690;BME280;44470;53.206;-6.106;2024-03-07T17:49:14;101580.97;;;20.98;41.73
58690;BME280;44470;53.206;-6.106;2024-03-07T17:51:41;101567.59;;;20.96;42.09
58690;BME280;44470;53.206;-6.106;2024-03-07T17:54:08;101571.09;;;21.01;41.97
58690;BME280;44470;53.206;-6.106;2024-03-07T17:56:36;101567.56;;;20.99;41.91
58690;BME280;44470;53.206;-6.106;2024-03-07T17:59:01;101578.31;;;20.95;41.83
58690;BME280;44470;53.206;-6.106;2024-03-07T18:01:27;101573.84;;;20.97;42.11
58690;BME280;44470;53.206;-6.106;2024-03-07T18:03:53;101571.09;;;21.01;41.72
58690;BME280;44470;53.206;-6.106;2024-03-07T18:06:20;101575.63;;;20.98;42.13
58690;BME280;44470;53.206;-6.106;2024-03-07T18:08:50;101576.50;;;20.98;41.53
58690;BME280;44470;53.206;-6.106;2024-03-07T18:11:16;101574.75;;;20.96;41.97
58690;BME280;44470;53.206;-6.106;2024-03-07T18:13:42;101567.59;;;20.96;42.12
58690;BME280;44470;53.206;-6.106;2024-03-07T18:16:07;101572.91;;;20.99;41.86
58690;BME280;44470;53.206;-6.106;2024-03-07T18:18:34;101566.69;;;20.97;42.17
58690;BME280;44470;53.206;-6.106;2024-03-07T18:20:59;101562.25;;;20.98;42.23
58690;BME280;44470;53.206;-6.106;2024-03-07T18:23:26;101559.56;;;20.98;41.92
58690;BME280;44470;53.206;-6.106;2024-03-07T18:25:53;101565.78;;;20.98;41.64
58690;BME280;44470;53.206;-6.106;2024-03-07T18:28:19;101565.81;;;20.95;41.91
58690;BME280;44470;53.206;-6.106;2024-03-07T18:30:45;101564.91;;;20.96;41.96
58690;BME280;44470;53.206;-6.106;2024-03-07T18:33:11;101564.03;;;20.96;41.72
58690;BME280;44470;53.206;-6.106;2024-03-07T18:35:38;101563.19;;;20.92;41.93
58690;BME280;44470;53.206;-6.106;2024-03-07T18:38:04;101554.25;;;20.91;41.93
58690;BME280;44470;53.206;-6.106;2024-03-07T18:40:32;101545.31;;;20.94;41.94
58690;BME280;44470;53.206;-6.106;2024-03-07T18:43:00;101549.81;;;20.92;41.96
58690;BME280;44470;53.206;-6.106;2024-03-07T18:45:26;101543.56;;;20.88;41.83
58690;BME280;44470;53.206;-6.106;2024-03-07T18:47:52;101536.41;;;20.90;41.85
58690;BME280;44470;53.206;-6.106;2024-03-07T18:52:46;101542.69;;;20.91;42.00
58690;BME280;44470;53.206;-6.106;2024-03-07T18:55:11;101542.72;;;20.88;42.13
58690;BME280;44470;53.206;-6.106;2024-03-07T18:57:50;101541.78;;;20.90;41.92
58690;BME280;44470;53.206;-6.106;2024-03-07T19:00:22;101538.25;;;20.85;42.72
58690;BME280;44470;53.206;-6.106;2024-03-07T19:03:00;101546.25;;;20.88;41.93
58690;BME280;44470;53.206;-6.106;2024-03-07T19:05:26;101536.50;;;20.86;42.00
58690;BME280;44470;53.206;-6.106;2024-03-07T19:07:51;101541.81;;;20.89;42.08
58690;BME280;44470;53.206;-6.106;2024-03-07T19:10:24;101539.09;;;20.92;42.04
58690;BME280;44470;53.206;-6.106;2024-03-07T19:12:54;101543.56;;;20.90;42.06
58690;BME280;44470;53.206;-6.106;2024-03-07T19:15:19;101537.28;;;20.94;41.76
58690;BME280;44470;53.206;-6.106;2024-03-07T19:17:46;101534.66;;;20.89;41.85
58690;BME280;44470;53.206;-6.106;2024-03-07T19:20:14;101542.72;;;20.88;42.08
58690;BME280;44470;53.206;-6.106;2024-03-07T19:22:43;101533.78;;;20.89;42.08
58690;BME280;44470;53.206;-6.106;2024-03-07T19:25:08;101528.44;;;20.89;41.78
58690;BME280;44470;53.206;-6.106;2024-03-07T19:27:33;101524.84;;;20.90;42.30
58690;BME280;44470;53.206;-6.106;2024-03-07T19:29:59;101528.47;;;20.86;42.01
58690;BME280;44470;53.206;-6.106;2024-03-07T19:32:26;101509.72;;;20.86;42.00
58690;BME280;44470;53.206;-6.106;2024-03-07T19:34:51;101504.34;;;20.87;42.06
58690;BME280;44470;53.206;-6.106;2024-03-07T19:37:22;101511.47;;;20.88;42.33
58690;BME280;44470;53.206;-6.106;2024-03-07T19:39:47;101511.50;;;20.85;42.29
58690;BME280;44470;53.206;-6.106;2024-03-07T19:42:12;101500.81;;;20.85;42.24
58690;BME280;44470;53.206;-6.106;2024-03-07T19:44:38;101507.03;;;20.87;41.90
58690;BME280;44470;53.206;-6.106;2024-03-07T19:47:03;101498.13;;;20.85;42.25
58690;BME280;44470;53.206;-6.106;2024-03-07T19:49:30;101499.03;;;20.86;42.08
58690;BME280;44470;53.206;-6.106;2024-03-07T19:51:55;101493.66;;;20.87;42.30
58690;BME280;44470;53.206;-6.106;2024-03-07T19:54:21;101496.34;;;20.86;42.35
58690;BME280;44470;53.206;-6.106;2024-03-07T19:56:46;101487.44;;;20.87;42.28
58690;BME280;44470;53.206;-6.106;2024-03-07T19:59:11;101493.72;;;20.83;42.01
58690;BME280;44470;53.206;-6.106;2024-03-07T20:01:38;101492.78;;;20.87;42.07
58690;BME280;44470;53.206;-6.106;2024-03-07T20:04:03;101490.13;;;20.84;42.25
58690;BME280;44470;53.206;-6.106;2024-03-07T20:06:32;101481.25;;;20.82;42.13
58690;BME280;44470;53.206;-6.106;2024-03-07T20:08:59;101478.56;;;20.82;42.45
58690;BME280;44470;53.206;-6.106;2024-03-07T20:11:25;101479.44;;;20.84;42.23
58690;BME280;44470;53.206;-6.106;2024-03-07T20:13:50;101481.22;;;20.85;42.39
58690;BME280;44470;53.206;-6.106;2024-03-07T20:16:15;101482.97;;;20.84;42.14
58690;BME280;44470;53.206;-6.106;2024-03-07T20:18:41;101471.47;;;20.76;42.17
58690;BME280;44470;53.206;-6.106;2024-03-07T20:21:08;101479.44;;;20.84;42.33
58690;BME280;44470;53.206;-6.106;2024-03-07T20:23:34;101487.50;;;20.81;42.09
58690;BME280;44470;53.206;-6.106;2024-03-07T20:26:00;101475.91;;;20.80;42.42
58690;BME280;44470;53.206;-6.106;2024-03-07T20:28:25;101479.47;;;20.79;42.60
58690;BME280;44470;53.206;-6.106;2024-03-07T20:30:50;101482.16;;;20.81;42.17
58690;BME280;44470;53.206;-6.106;2024-03-07T20:33:17;101480.34;;;20.83;42.61
58690;BME280;44470;53.206;-6.106;2024-03-07T20:35:43;101475.91;;;20.82;42.62
58690;BME280;44470;53.206;-6.106;2024-03-07T20:38:09;101474.09;;;20.82;42.20
58690;BME280;44470;53.206;-6.106;2024-03-07T20:40:40;101463.38;;;20.82;42.36
58690;BME280;44470;53.206;-6.106;2024-03-07T20:43:07;101471.41;;;20.82;42.22
58690;BME280;44470;53.206;-6.106;2024-03-07T20:45:34;101468.75;;;20.82;42.36
58690;BME280;44470;53.206;-6.106;2024-03-07T20:48:00;101468.78;;;20.79;42.52
58690;BME280;44470;53.206;-6.106;2024-03-07T20:50:30;101461.66;;;20.75;42.13
58690;BME280;44470;53.206;-6.106;2024-03-07T20:52:57;101458.97;;;20.75;42.66
58690;BME280;44470;53.206;-6.106;2024-03-07T20:55:23;101460.72;;;20.82;42.52
58690;BME280;44470;53.206;-6.106;2024-03-07T20:57:49;101458.97;;;20.76;42.48
58690;BME280;44470;53.206;-6.106;2024-03-07T21:00:15;101460.75;;;20.76;42.40
58690;BME280;44470;53.206;-6.106;2024-03-07T21:02:44;101460.75;;;20.77;42.21
58690;BME280;44470;53.206;-6.106;2024-03-07T21:05:13;101454.53;;;20.74;42.64
58690;BME280;44470;53.206;-6.106;2024-03-07T21:07:41;101457.19;;;20.77;42.37
58690;BME280;44470;53.206;-6.106;2024-03-07T21:10:10;101450.91;;;20.81;42.30
58690;BME280;44470;53.206;-6.106;2024-03-07T21:12:38;101450.97;;;20.76;42.13
58690;BME280;44470;53.206;-6.106;2024-03-07T21:15:08;101450.09;;;20.74;42.29
58690;BME280;44470;53.206;-6.106;2024-03-07T21:17:34;101445.59;;;20.76;42.28
58690;BME280;44470;53.206;-6.106;2024-03-07T21:20:05;101451.84;;;20.79;42.58
58690;BME280;44470;53.206;-6.106;2024-03-07T21:22:37;101444.69;;;20.77;42.46
58690;BME280;44470;53.206;-6.106;2024-03-07T21:25:03;101443.81;;;20.77;42.58
58690;BME280;44470;53.206;-6.106;2024-03-07T21:27:29;101446.47;;;20.77;42.69
58690;BME280;44470;53.206;-6.106;2024-03-07T21:29:55;101444.69;;;20.77;42.26
58690;BME280;44470;53.206;-6.106;2024-03-07T21:32:20;101446.50;;;20.79;42.46
58690;BME280;44470;53.206;-6.106;2024-03-07T21:34:46;101438.44;;;20.77;42.69
58690;BME280;44470;53.206;-6.106;2024-03-07T21:37:12;101438.44;;;20.77;42.41
58690;BME280;44470;53.206;-6.106;2024-03-07T21:39:40;101437.59;;;20.76;42.66
58690;BME280;44470;53.206;-6.106;2024-03-07T21:42:07;101439.31;;;20.84;42.52
58690;BME280;44470;53.206;-6.106;2024-03-07T21:44:34;101434.00;;;20.77;42.59
58690;BME280;44470;53.206;-6.106;2024-03-07T21:46:59;101430.47;;;20.79;42.50
58690;BME280;44470;53.206;-6.106;2024-03-07T21:49:25;101434.00;;;20.77;42.73
58690;BME280;44470;53.206;-6.106;2024-03-07T21:51:50;101431.31;;;20.77;42.73
58690;BME280;44470;53.206;-6.106;2024-03-07T21:54:16;101425.06;;;20.82;43.60
58690;BME280;44470;53.206;-6.106;2024-03-07T21:56:44;101422.38;;;20.82;43.52
58690;BME280;44470;53.206;-6.106;2024-03-07T21:59:11;101425.97;;;20.79;43.42
58690;BME280;44470;53.206;-6.106;2024-03-07T22:01:37;101420.63;;;20.81;43.44
58690;BME280;44470;53.206;-6.106;2024-03-07T22:04:03;101423.31;;;20.77;43.70
58690;BME280;44470;53.206;-6.106;2024-03-07T22:06:32;101416.19;;;20.76;43.53
58690;BME280;44470;53.206;-6.106;2024-03-07T22:09:01;101414.41;;;20.75;43.16
58690;BME280;44470;53.206;-6.106;2024-03-07T22:11:26;101420.63;;;20.77;43.35
58690;BME280;44470;53.206;-6.106;2024-03-07T22:13:55;101409.06;;;20.79;43.21
58690;BME280;44470;53.206;-6.106;2024-03-07T22:16:20;101408.19;;;20.73;43.15
58690;BME280;44470;53.206;-6.106;2024-03-07T22:18:46;101401.91;;;20.77;43.14
58690;BME280;44470;53.206;-6.106;2024-03-07T22:21:12;101397.41;;;20.78;43.10
58690;BME280;44470;53.206;-6.106;2024-03-07T22:23:38;101403.72;;;20.75;43.27
58690;BME280;44470;53.206;-6.106;2024-03-07T22:26:03;101402.75;;;20.81;42.92
58690;BME280;44470;53.206;-6.106;2024-03-07T22:28:30;101386.75;;;20.76;42.91
58690;BME280;44470;53.206;-6.106;2024-03-07T22:30:57;101389.44;;;20.76;43.29
58690;BME280;44470;53.206;-6.106;2024-03-07T22:33:23;101375.13;;;20.81;43.26
58690;BME280;44470;53.206;-6.106;2024-03-07T22:35:48;101368.03;;;20.80;43.19
58690;BME280;44470;53.206;-6.106;2024-03-07T22:38:14;101361.78;;;20.76;43.30
58690;BME280;44470;53.206;-6.106;2024-03-07T22:40:40;101360.69;;;20.94;43.23
58690;BME280;44470;53.206;-6.106;2024-03-07T22:43:06;101347.13;;;21.07;43.23
58690;BME280;44470;53.206;-6.106;2024-03-07T22:45:32;101349.06;;;20.94;43.15
58690;BME280;44470;53.206;-6.106;2024-03-07T22:47:57;101357.25;;;20.84;43.42
58690;BME280;44470;53.206;-6.106;2024-03-07T22:50:23;101352.84;;;20.82;43.27
58690;BME280;44470;53.206;-6.106;2024-03-07T22:52:51;101355.50;;;20.82;43.12
58690;BME280;44470;53.206;-6.106;2024-03-07T22:55:18;101360.00;;;20.80;43.47
58690;BME280;44470;53.206;-6.106;2024-03-07T22:57:48;101354.66;;;20.76;43.00
58690;BME280;44470;53.206;-6.106;2024-03-07T23:00:14;101356.44;;;20.76;43.54
58690;BME280;44470;53.206;-6.106;2024-03-07T23:02:52;101345.78;;;20.74;43.33
58690;BME280;44470;53.206;-6.106;2024-03-07T23:05:21;101347.59;;;20.71;43.36
58690;BME280;44470;53.206;-6.106;2024-03-07T23:07:49;101338.66;;;20.72;43.10
58690;BME280;44470;53.206;-6.106;2024-03-07T23:10:19;101332.44;;;20.71;43.15
58690;BME280;44470;53.206;-6.106;2024-03-07T23:12:47;101328.81;;;20.74;43.12
58690;BME280;44470;53.206;-6.106;2024-03-07T23:15:16;101321.75;;;20.71;43.01
58690;BME280;44470;53.206;-6.106;2024-03-07T23:17:43;101316.34;;;20.74;42.90
58690;BME280;44470;53.206;-6.106;2024-03-07T23:20:15;101308.38;;;20.71;42.88
58690;BME280;44470;53.206;-6.106;2024-03-07T23:22:48;101311.00;;;20.73;42.97
58690;BME280;44470;53.206;-6.106;2024-03-07T23:25:29;101306.56;;;20.73;43.48
58690;BME280;44470;53.206;-6.106;2024-03-07T23:46:51;101287.03;;;20.65;42.97
58690;BME280;44470;53.206;-6.106;2024-03-07T23:49:17;101289.69;;;20.65;43.20
58690;BME280;44470;53.206;-6.106;2024-03-07T23:51:45;101279.91;;;20.66;42.93
58690;BME280;44470;53.206;-6.106;2024-03-07T23:54:13;101283.47;;;20.65;43.14
58690;BME280;44470;53.206;-6.106;2024-03-07T23:56:42;101277.28;;;20.61;43.32
58690;BME280;44470;53.206;-6.106;2024-03-07T23:59:08;101273.69;;;20.62;43.17
